KCDS/CDS METAR and TAF weather

Enter ICAO airport designator
Station Type Date Time Source
KCDS METAR 2019/04/25 15:53 UTC NOAA

KCDS 251553Z AUTO 32007KT 10SM CLR 22/12 A2991 RMK AO2 SLP113 T02170122


Station Type Date Time Source
KCDS Decoded METAR 2019/04/25 15:53 UTC NOAA

CHILDRESS MUNICIPAL AIRPORT, TX, United States (KCDS) 34-26N 100-17W 594M
Apr 25, 2019 - 11:53 AM EDT / 2019.04.25 1553 UTC
Wind: from the NW (320 degrees) at 8 MPH (7 KT):0
Visibility: 10 mile(s):0
Sky conditions: clear
Temperature: 71.1 F (21.7 C)
Dew Point: 54.0 F (12.2 C)
Relative Humidity: 54%
Pressure (altimeter): 29.91 in. Hg (1012 hPa)
ob: KCDS 251553Z AUTO 32007KT 10SM CLR 22/12 A2991 RMK AO2 SLP113 T02170122
cycle: 16

Station Type Date Time Source
KCDS TAF 2019/04/25 12:22 UTC NOAA

TAF KCDS 251120Z 2512/2612 VRB05KT P6SM FEW250
FM252000 01015KT P6SM SKC
FM260300 04007KT P6SM SKC

Example: see airport list